createdAt,value
2023-03-05T00:00:07.504Z,49.50
2023-03-05T00:05:30.958Z,49.81
2023-03-05T00:10:34.468Z,49.98
2023-03-05T00:15:42.500Z,50.15
2023-03-05T00:20:46.515Z,50.47
2023-03-05T00:25:50.030Z,50.45
2023-03-05T00:30:53.687Z,50.63
2023-03-05T00:35:57.658Z,50.66
2023-03-05T00:41:01.499Z,50.95
2023-03-05T00:46:05.521Z,50.97
2023-03-05T00:51:09.666Z,51.02
2023-03-05T00:56:13.381Z,51.14
2023-03-05T01:01:16.833Z,51.23
2023-03-05T01:06:20.914Z,51.43
2023-03-05T01:11:25.032Z,51.55
2023-03-05T01:16:28.657Z,51.80
2023-03-05T01:21:32.168Z,51.96
2023-03-05T01:26:36.248Z,52.29
2023-03-05T01:31:39.738Z,52.46
2023-03-05T01:36:43.416Z,52.48
2023-03-05T01:41:47.551Z,52.65
2023-03-05T01:46:51.276Z,52.85
2023-03-05T01:52:18.217Z,52.82
2023-03-05T01:57:23.591Z,53.03
2023-03-05T02:02:27.216Z,53.47
2023-03-05T02:07:32.266Z,53.17
2023-03-05T02:12:35.672Z,53.52
2023-03-05T02:17:39.303Z,53.85
2023-03-05T02:22:42.921Z,54.10
2023-03-05T02:28:04.040Z,54.47
2023-03-05T02:33:07.758Z,54.63
2023-03-05T02:38:12.403Z,54.45
2023-03-05T02:43:15.836Z,54.56
2023-03-05T02:48:19.436Z,54.89
2023-03-05T02:53:24.088Z,54.89
2023-03-05T02:58:27.898Z,55.21
2023-03-05T03:03:31.689Z,55.40
2023-03-05T03:08:35.339Z,55.67
2023-03-05T03:13:39.176Z,55.51
2023-03-05T03:18:44.238Z,55.48
2023-03-05T03:23:47.841Z,55.83
2023-03-05T03:28:51.557Z,56.26
2023-03-05T03:33:55.378Z,56.50
2023-03-05T03:38:58.689Z,56.29
2023-03-05T03:44:03.799Z,56.19
2023-03-05T03:49:10.943Z,56.75
2023-03-05T03:54:16.025Z,56.54
2023-03-05T03:59:19.876Z,56.87
2023-03-05T04:04:23.382Z,56.95
2023-03-05T04:09:27.052Z,56.87
2023-03-05T04:14:30.774Z,57.31
2023-03-05T04:19:34.190Z,57.32
2023-03-05T04:24:38.522Z,57.80
2023-03-05T04:29:41.829Z,58.26
2023-03-05T04:34:45.343Z,58.34
2023-03-05T04:39:49.073Z,58.39
2023-03-05T04:44:52.882Z,58.23
2023-03-05T04:49:56.302Z,58.30
2023-03-05T04:55:00.032Z,58.50
2023-03-05T05:00:12.131Z,58.73
2023-03-05T05:05:24.767Z,59.29
2023-03-05T05:10:28.403Z,59.37
2023-03-05T05:15:32.616Z,59.51
2023-03-05T05:20:36.131Z,59.45
2023-03-05T05:25:39.850Z,59.77
2023-03-05T05:30:43.365Z,59.83
2023-03-05T05:35:47.249Z,60.22
2023-03-05T05:40:50.709Z,60.87
2023-03-05T05:45:54.396Z,61.28
2023-03-05T05:50:58.157Z,61.83
2023-03-05T05:56:04.020Z,61.48
2023-03-05T06:01:25.761Z,61.88
2023-03-05T06:06:29.786Z,61.48
2023-03-05T06:11:34.331Z,61.47
2023-03-05T06:16:38.167Z,61.53
2023-03-05T06:21:43.758Z,61.71
2023-03-05T06:26:48.867Z,61.85
2023-03-05T06:31:52.383Z,61.80
2023-03-05T06:36:56.010Z,61.97
2023-03-05T06:41:59.623Z,62.03
2023-03-05T06:47:07.190Z,62.12
2023-03-05T06:52:10.976Z,62.54
2023-03-05T06:57:14.621Z,62.58
2023-03-05T07:02:19.462Z,62.78
2023-03-05T07:07:22.941Z,63.48
2023-03-05T07:12:26.651Z,63.55
2023-03-05T07:17:30.283Z,63.83
2023-03-05T07:22:33.796Z,63.83
2023-03-05T07:27:39.048Z,63.84
2023-03-05T07:32:42.961Z,63.36
2023-03-05T07:37:46.584Z,63.59
2023-03-05T07:42:50.126Z,63.41
2023-03-05T07:47:53.617Z,62.93
2023-03-05T07:52:57.134Z,62.81
2023-03-05T07:58:00.756Z,62.32
2023-03-05T08:03:04.380Z,61.96
2023-03-05T08:08:08.909Z,61.67
2023-03-05T08:13:12.168Z,61.17
2023-03-05T08:18:19.213Z,60.69
2023-03-05T08:23:22.814Z,60.60
2023-03-05T08:28:26.659Z,60.22
2023-03-05T08:33:31.622Z,60.04
2023-03-05T08:38:36.043Z,59.82
2023-03-05T08:43:39.977Z,59.46
2023-03-05T08:48:44.005Z,59.18
2023-03-05T08:53:48.243Z,58.51
2023-03-05T08:58:52.764Z,57.98
2023-03-05T09:03:56.487Z,57.95
2023-03-05T09:09:00.143Z,57.76
2023-03-05T09:14:05.052Z,57.42
2023-03-05T09:19:10.821Z,57.50
2023-03-05T09:24:14.446Z,57.13
2023-03-05T09:29:17.954Z,57.07
2023-03-05T09:34:22.290Z,56.77
2023-03-05T09:39:25.701Z,56.52
2023-03-05T09:44:41.962Z,55.94
2023-03-05T09:49:45.544Z,55.18
2023-03-05T09:54:54.622Z,54.55
2023-03-05T10:00:09.182Z,54.46
2023-03-05T10:05:21.778Z,54.11
2023-03-05T10:10:41.991Z,53.56
2023-03-05T10:16:05.280Z,53.23
2023-03-05T10:21:18.717Z,51.70
2023-03-05T10:26:34.116Z,50.82
2023-03-05T10:31:46.670Z,50.27
2023-03-05T10:36:58.159Z,49.25
2023-03-05T10:42:20.496Z,48.31
2023-03-05T10:47:38.972Z,47.94
2023-03-05T10:52:48.867Z,48.51
2023-03-05T10:57:52.341Z,47.42
2023-03-05T11:03:04.867Z,46.96
2023-03-05T11:08:35.743Z,47.41
2023-03-05T11:14:00.812Z,47.21
2023-03-05T11:19:22.992Z,46.73
2023-03-05T11:24:26.507Z,46.25
2023-03-05T11:29:35.144Z,46.49
2023-03-05T11:35:01.626Z,45.56
2023-03-05T11:40:18.539Z,44.55
2023-03-05T11:45:24.121Z,44.68
2023-03-05T11:50:27.609Z,45.11
2023-03-05T11:55:41.695Z,44.98
2023-03-05T12:00:47.338Z,44.66
2023-03-05T12:05:58.607Z,47.45
2023-03-05T12:11:09.836Z,50.28
2023-03-05T12:16:25.901Z,50.85
2023-03-05T12:21:39.708Z,50.89
2023-03-05T12:27:14.997Z,51.02
2023-03-05T12:32:34.244Z,51.14
2023-03-05T12:37:44.047Z,51.37
2023-03-05T12:42:59.198Z,51.59
2023-03-05T12:48:02.612Z,51.25
2023-03-05T12:53:18.427Z,51.22
2023-03-05T12:58:54.087Z,51.35
2023-03-05T13:04:04.518Z,51.17
2023-03-05T13:09:30.034Z,50.50
2023-03-05T13:14:35.756Z,49.77
2023-03-05T13:19:42.237Z,49.67
2023-03-05T13:24:47.230Z,48.72
2023-03-05T13:29:52.990Z,47.34
2023-03-05T13:34:59.480Z,46.57
2023-03-05T13:40:19.052Z,45.70
2023-03-05T13:45:30.077Z,44.72
2023-03-05T13:50:38.972Z,44.36
2023-03-05T13:55:42.479Z,43.78
2023-03-05T14:00:46.182Z,44.36
2023-03-05T14:05:50.330Z,44.64
2023-03-05T14:10:57.341Z,44.45
2023-03-05T14:16:26.267Z,44.50
2023-03-05T14:21:48.336Z,44.67
2023-03-05T14:26:54.058Z,44.46
2023-03-05T14:32:03.278Z,44.45
2023-03-05T14:37:21.770Z,44.57
2023-03-05T14:42:39.452Z,44.51
2023-03-05T14:47:43.243Z,44.67
2023-03-05T14:52:49.034Z,44.70
2023-03-05T14:58:07.484Z,44.56
2023-03-05T15:03:12.738Z,44.51
2023-03-05T15:08:34.940Z,44.65
2023-03-05T15:13:38.400Z,44.37
2023-03-05T15:18:41.918Z,43.54
2023-03-05T15:23:45.633Z,42.99
2023-03-05T15:28:49.149Z,42.82
2023-03-05T15:33:52.971Z,42.36
2023-03-05T15:38:56.405Z,42.16
2023-03-05T15:44:00.007Z,42.23
2023-03-05T15:49:03.517Z,41.52
2023-03-05T15:54:07.137Z,40.55
2023-03-05T15:59:13.658Z,40.68
2023-03-05T16:04:17.764Z,40.97
2023-03-05T16:09:21.992Z,41.49
2023-03-05T16:14:28.029Z,41.57
2023-03-05T16:19:34.549Z,41.68
2023-03-05T16:24:38.064Z,41.99
2023-03-05T16:29:41.584Z,42.81
2023-03-05T16:34:45.201Z,43.35
2023-03-05T16:39:49.338Z,44.26
2023-03-05T16:44:52.964Z,44.79
2023-03-05T16:49:56.578Z,45.32
2023-03-05T16:55:00.952Z,46.33
2023-03-05T17:00:05.935Z,47.34
2023-03-05T17:05:09.615Z,47.98
2023-03-05T17:10:14.110Z,48.41
2023-03-05T17:15:17.844Z,49.52
2023-03-05T17:20:21.859Z,49.46
2023-03-05T17:25:25.377Z,50.04
2023-03-05T17:30:31.582Z,50.49
2023-03-05T17:35:35.708Z,51.33
2023-03-05T17:40:39.915Z,51.43
2023-03-05T17:45:43.510Z,52.14
2023-03-05T17:50:47.563Z,52.94
2023-03-05T17:55:51.280Z,53.91
2023-03-05T18:00:55.191Z,54.66
2023-03-05T18:05:58.754Z,54.45
2023-03-05T18:11:02.346Z,54.75
2023-03-05T18:16:06.364Z,55.39
2023-03-05T18:21:10.305Z,55.13
2023-03-05T18:26:14.437Z,55.90
2023-03-05T18:31:19.270Z,56.46
2023-03-05T18:36:23.462Z,57.53
2023-03-05T18:41:28.323Z,57.76
2023-03-05T18:46:32.475Z,57.86
2023-03-05T18:51:37.705Z,57.99
2023-03-05T18:56:41.359Z,58.81
2023-03-05T19:01:44.907Z,59.37
2023-03-05T19:06:48.948Z,59.69
2023-03-05T19:11:53.135Z,60.13
2023-03-05T19:16:57.094Z,60.59
2023-03-05T19:22:01.429Z,61.16
2023-03-05T19:27:10.736Z,61.69
2023-03-05T19:32:17.861Z,61.48
2023-03-05T19:37:22.491Z,62.16
2023-03-05T19:42:29.374Z,62.56
2023-03-05T19:47:33.518Z,62.62
2023-03-05T19:52:37.853Z,63.08
2023-03-05T19:57:42.075Z,63.29
2023-03-05T20:02:46.661Z,64.33
2023-03-05T20:07:50.742Z,63.90
2023-03-05T20:12:55.293Z,64.47
2023-03-05T20:17:59.966Z,65.03
2023-03-05T20:23:04.130Z,65.02
2023-03-05T20:28:08.600Z,65.74
2023-03-05T20:33:13.036Z,65.43
2023-03-05T20:38:21.805Z,65.18
2023-03-05T20:43:30.393Z,65.11
2023-03-05T20:48:34.771Z,65.53
2023-03-05T20:53:38.247Z,65.67
2023-03-05T20:58:42.411Z,65.87
2023-03-05T21:03:45.893Z,66.09
2023-03-05T21:08:49.413Z,65.98
2023-03-05T21:13:53.032Z,65.81
2023-03-05T21:18:57.569Z,66.11
2023-03-05T21:24:00.983Z,66.32
2023-03-05T21:29:05.620Z,65.97
2023-03-05T21:34:09.144Z,66.31
2023-03-05T21:39:12.656Z,66.43
2023-03-05T21:44:18.011Z,66.49
2023-03-05T21:49:21.530Z,66.93
2023-03-05T21:54:26.368Z,67.10
2023-03-05T21:59:30.906Z,67.41
2023-03-05T22:04:34.525Z,67.42
2023-03-05T22:09:38.248Z,67.55
2023-03-05T22:14:42.068Z,67.74
2023-03-05T22:19:45.581Z,67.68
2023-03-05T22:24:49.098Z,68.10
2023-03-05T22:29:52.720Z,67.70
2023-03-05T22:34:56.944Z,68.06
2023-03-05T22:40:01.175Z,68.43
2023-03-05T22:45:05.046Z,68.04
2023-03-05T22:50:09.433Z,68.20
2023-03-05T22:55:14.076Z,68.20
2023-03-05T23:00:21.758Z,68.28
2023-03-05T23:05:25.314Z,68.25
2023-03-05T23:10:29.652Z,68.29
2023-03-05T23:15:36.072Z,68.73
2023-03-05T23:20:39.662Z,68.50
2023-03-05T23:25:43.271Z,68.82
2023-03-05T23:30:47.040Z,68.71
2023-03-05T23:35:59.406Z,68.78
2023-03-05T23:41:07.335Z,68.57
2023-03-05T23:46:12.460Z,68.66
2023-03-05T23:51:16.100Z,68.78
2023-03-05T23:56:19.719Z,68.56
